sensor_id;sensor_type;location;lat;lon;timestamp;P1;durP1;ratioP1;P2;durP2;ratioP2
23676;SDS011;31493;49.058;12.190;2023-05-14T00:01:38;13.60;;;10.98;;
23676;SDS011;31493;49.058;12.190;2023-05-14T00:04:12;13.70;;;10.70;;
23676;SDS011;31493;49.058;12.190;2023-05-14T00:06:39;13.30;;;10.85;;
23676;SDS011;31493;49.058;12.190;2023-05-14T00:09:06;13.77;;;10.63;;
23676;SDS011;31493;49.058;12.190;2023-05-14T00:11:33;13.23;;;10.60;;
23676;SDS011;31493;49.058;12.190;2023-05-14T00:14:00;13.57;;;11.00;;
23676;SDS011;31493;49.058;12.190;2023-05-14T00:16:27;14.32;;;11.05;;
23676;SDS011;31493;49.058;12.190;2023-05-14T00:18:54;13.43;;;11.02;;
23676;SDS011;31493;49.058;12.190;2023-05-14T00:21:23;13.35;;;11.07;;
23676;SDS011;31493;49.058;12.190;2023-05-14T00:23:50;13.90;;;11.15;;
23676;SDS011;31493;49.058;12.190;2023-05-14T00:26:17;16.58;;;12.45;;
23676;SDS011;31493;49.058;12.190;2023-05-14T00:28:44;15.98;;;11.85;;
23676;SDS011;31493;49.058;12.190;2023-05-14T00:31:12;13.85;;;11.48;;
23676;SDS011;31493;49.058;12.190;2023-05-14T00:33:39;14.15;;;11.38;;
23676;SDS011;31493;49.058;12.190;2023-05-14T00:36:06;15.52;;;11.75;;
23676;SDS011;31493;49.058;12.190;2023-05-14T00:38:35;15.93;;;12.10;;
23676;SDS011;31493;49.058;12.190;2023-05-14T00:41:02;15.02;;;11.40;;
23676;SDS011;31493;49.058;12.190;2023-05-14T00:43:29;14.30;;;11.30;;
23676;SDS011;31493;49.058;12.190;2023-05-14T00:45:57;15.83;;;10.87;;
23676;SDS011;31493;49.058;12.190;2023-05-14T00:48:25;14.40;;;10.60;;
23676;SDS011;31493;49.058;12.190;2023-05-14T00:50:52;15.10;;;10.95;;
23676;SDS011;31493;49.058;12.190;2023-05-14T00:53:19;12.85;;;10.77;;
23676;SDS011;31493;49.058;12.190;2023-05-14T00:55:48;13.23;;;11.00;;
23676;SDS011;31493;49.058;12.190;2023-05-14T00:58:16;15.20;;;10.73;;
23676;SDS011;31493;49.058;12.190;2023-05-14T01:00:44;13.13;;;10.18;;
23676;SDS011;31493;49.058;12.190;2023-05-14T01:03:11;13.85;;;10.80;;
23676;SDS011;31493;49.058;12.190;2023-05-14T01:05:40;14.18;;;11.10;;
23676;SDS011;31493;49.058;12.190;2023-05-14T01:08:17;14.32;;;10.68;;
23676;SDS011;31493;49.058;12.190;2023-05-14T01:11:01;13.63;;;10.38;;
23676;SDS011;31493;49.058;12.190;2023-05-14T01:13:33;16.75;;;10.82;;
23676;SDS011;31493;49.058;12.190;2023-05-14T01:16:07;13.73;;;10.57;;
23676;SDS011;31493;49.058;12.190;2023-05-14T01:18:39;14.13;;;10.65;;
23676;SDS011;31493;49.058;12.190;2023-05-14T01:21:26;12.93;;;10.77;;
23676;SDS011;31493;49.058;12.190;2023-05-14T01:23:59;13.52;;;10.40;;
23676;SDS011;31493;49.058;12.190;2023-05-14T01:26:27;14.68;;;11.02;;
23676;SDS011;31493;49.058;12.190;2023-05-14T01:28:56;13.70;;;10.98;;
23676;SDS011;31493;49.058;12.190;2023-05-14T01:31:26;13.02;;;10.63;;
23676;SDS011;31493;49.058;12.190;2023-05-14T01:33:58;14.65;;;11.00;;
23676;SDS011;31493;49.058;12.190;2023-05-14T01:36:27;17.70;;;11.30;;
23676;SDS011;31493;49.058;12.190;2023-05-14T01:38:55;13.85;;;11.02;;
23676;SDS011;31493;49.058;12.190;2023-05-14T01:41:24;11.90;;;10.53;;
23676;SDS011;31493;49.058;12.190;2023-05-14T01:43:51;14.17;;;10.50;;
23676;SDS011;31493;49.058;12.190;2023-05-14T01:46:19;14.75;;;11.15;;
23676;SDS011;31493;49.058;12.190;2023-05-14T01:48:48;12.95;;;10.70;;
23676;SDS011;31493;49.058;12.190;2023-05-14T01:51:15;12.65;;;10.80;;
23676;SDS011;31493;49.058;12.190;2023-05-14T01:53:43;13.25;;;11.07;;
23676;SDS011;31493;49.058;12.190;2023-05-14T01:56:10;12.57;;;11.13;;
23676;SDS011;31493;49.058;12.190;2023-05-14T01:58:37;13.13;;;10.68;;
23676;SDS011;31493;49.058;12.190;2023-05-14T02:01:05;12.63;;;10.35;;
23676;SDS011;31493;49.058;12.190;2023-05-14T02:03:32;15.20;;;10.90;;
23676;SDS011;31493;49.058;12.190;2023-05-14T02:05:59;13.60;;;10.77;;
23676;SDS011;31493;49.058;12.190;2023-05-14T02:08:26;14.23;;;11.10;;
23676;SDS011;31493;49.058;12.190;2023-05-14T02:10:54;13.77;;;10.73;;
23676;SDS011;31493;49.058;12.190;2023-05-14T02:13:21;12.98;;;11.55;;
23676;SDS011;31493;49.058;12.190;2023-05-14T02:15:48;14.20;;;11.20;;
23676;SDS011;31493;49.058;12.190;2023-05-14T02:18:15;14.48;;;11.13;;
23676;SDS011;31493;49.058;12.190;2023-05-14T02:20:42;13.85;;;11.55;;
23676;SDS011;31493;49.058;12.190;2023-05-14T02:23:10;15.70;;;12.02;;
23676;SDS011;31493;49.058;12.190;2023-05-14T02:25:37;15.32;;;11.18;;
23676;SDS011;31493;49.058;12.190;2023-05-14T02:28:05;15.15;;;11.98;;
23676;SDS011;31493;49.058;12.190;2023-05-14T02:30:32;13.90;;;11.85;;
23676;SDS011;31493;49.058;12.190;2023-05-14T02:32:59;14.77;;;12.13;;
23676;SDS011;31493;49.058;12.190;2023-05-14T02:35:26;15.23;;;11.82;;
23676;SDS011;31493;49.058;12.190;2023-05-14T02:37:53;13.57;;;11.35;;
23676;SDS011;31493;49.058;12.190;2023-05-14T02:40:20;15.07;;;11.65;;
23676;SDS011;31493;49.058;12.190;2023-05-14T02:42:47;15.25;;;11.77;;
23676;SDS011;31493;49.058;12.190;2023-05-14T02:45:16;15.55;;;11.52;;
23676;SDS011;31493;49.058;12.190;2023-05-14T02:47:43;15.70;;;11.52;;
23676;SDS011;31493;49.058;12.190;2023-05-14T02:50:10;13.80;;;11.25;;
23676;SDS011;31493;49.058;12.190;2023-05-14T02:52:37;14.80;;;12.02;;
23676;SDS011;31493;49.058;12.190;2023-05-14T02:55:04;17.17;;;13.20;;
23676;SDS011;31493;49.058;12.190;2023-05-14T02:57:32;15.55;;;12.70;;
23676;SDS011;31493;49.058;12.190;2023-05-14T02:59:59;19.10;;;12.73;;
23676;SDS011;31493;49.058;12.190;2023-05-14T03:02:27;16.38;;;11.65;;
23676;SDS011;31493;49.058;12.190;2023-05-14T03:04:54;15.75;;;12.38;;
23676;SDS011;31493;49.058;12.190;2023-05-14T03:07:21;16.45;;;12.85;;
23676;SDS011;31493;49.058;12.190;2023-05-14T03:09:48;17.70;;;13.23;;
23676;SDS011;31493;49.058;12.190;2023-05-14T03:12:15;18.00;;;13.43;;
23676;SDS011;31493;49.058;12.190;2023-05-14T03:14:42;16.42;;;12.77;;
23676;SDS011;31493;49.058;12.190;2023-05-14T03:17:09;15.55;;;12.32;;
23676;SDS011;31493;49.058;12.190;2023-05-14T03:19:38;14.82;;;12.40;;
23676;SDS011;31493;49.058;12.190;2023-05-14T03:22:05;16.17;;;12.32;;
23676;SDS011;31493;49.058;12.190;2023-05-14T03:24:32;18.02;;;13.45;;
23676;SDS011;31493;49.058;12.190;2023-05-14T03:27:00;17.20;;;12.87;;
23676;SDS011;31493;49.058;12.190;2023-05-14T03:29:27;18.38;;;12.88;;
23676;SDS011;31493;49.058;12.190;2023-05-14T03:31:54;21.00;;;13.13;;
23676;SDS011;31493;49.058;12.190;2023-05-14T03:34:21;18.05;;;13.43;;
23676;SDS011;31493;49.058;12.190;2023-05-14T03:36:50;18.10;;;13.18;;
23676;SDS011;31493;49.058;12.190;2023-05-14T03:39:17;16.90;;;12.60;;
23676;SDS011;31493;49.058;12.190;2023-05-14T03:41:44;16.55;;;12.88;;
23676;SDS011;31493;49.058;12.190;2023-05-14T03:44:11;15.90;;;12.45;;
23676;SDS011;31493;49.058;12.190;2023-05-14T03:46:39;15.82;;;12.32;;
23676;SDS011;31493;49.058;12.190;2023-05-14T03:49:06;17.20;;;13.20;;
23676;SDS011;31493;49.058;12.190;2023-05-14T03:51:33;17.73;;;12.95;;
23676;SDS011;31493;49.058;12.190;2023-05-14T03:54:02;15.52;;;11.80;;
23676;SDS011;31493;49.058;12.190;2023-05-14T03:56:29;16.88;;;12.50;;
23676;SDS011;31493;49.058;12.190;2023-05-14T03:58:56;16.67;;;13.05;;
23676;SDS011;31493;49.058;12.190;2023-05-14T04:01:23;14.38;;;11.93;;
23676;SDS011;31493;49.058;12.190;2023-05-14T04:03:50;16.73;;;12.15;;
23676;SDS011;31493;49.058;12.190;2023-05-14T04:06:17;16.33;;;13.32;;
23676;SDS011;31493;49.058;12.190;2023-05-14T04:08:44;16.35;;;12.63;;
23676;SDS011;31493;49.058;12.190;2023-05-14T04:11:12;16.65;;;13.52;;
23676;SDS011;31493;49.058;12.190;2023-05-14T04:13:39;18.27;;;13.45;;
23676;SDS011;31493;49.058;12.190;2023-05-14T04:16:06;18.02;;;13.63;;
23676;SDS011;31493;49.058;12.190;2023-05-14T04:18:33;18.48;;;13.07;;
23676;SDS011;31493;49.058;12.190;2023-05-14T04:21:00;15.05;;;12.25;;
23676;SDS011;31493;49.058;12.190;2023-05-14T04:23:27;17.45;;;12.57;;
23676;SDS011;31493;49.058;12.190;2023-05-14T04:25:56;15.40;;;11.98;;
23676;SDS011;31493;49.058;12.190;2023-05-14T04:28:24;13.68;;;10.65;;
23676;SDS011;31493;49.058;12.190;2023-05-14T04:30:51;15.68;;;12.07;;
23676;SDS011;31493;49.058;12.190;2023-05-14T04:33:18;13.40;;;11.07;;
23676;SDS011;31493;49.058;12.190;2023-05-14T04:35:45;16.60;;;11.77;;
23676;SDS011;31493;49.058;12.190;2023-05-14T04:38:13;14.63;;;11.57;;
23676;SDS011;31493;49.058;12.190;2023-05-14T04:40:40;14.43;;;10.90;;
23676;SDS011;31493;49.058;12.190;2023-05-14T04:43:07;16.30;;;10.88;;
23676;SDS011;31493;49.058;12.190;2023-05-14T04:45:36;13.63;;;10.63;;
23676;SDS011;31493;49.058;12.190;2023-05-14T04:48:03;14.23;;;10.57;;
23676;SDS011;31493;49.058;12.190;2023-05-14T04:50:32;17.67;;;11.30;;
23676;SDS011;31493;49.058;12.190;2023-05-14T04:52:59;16.58;;;11.88;;
23676;SDS011;31493;49.058;12.190;2023-05-14T04:55:26;14.63;;;10.85;;
23676;SDS011;31493;49.058;12.190;2023-05-14T04:57:53;13.38;;;10.43;;
23676;SDS011;31493;49.058;12.190;2023-05-14T05:00:20;13.07;;;10.20;;
23676;SDS011;31493;49.058;12.190;2023-05-14T05:02:49;14.13;;;10.40;;
23676;SDS011;31493;49.058;12.190;2023-05-14T05:05:16;17.50;;;10.95;;
23676;SDS011;31493;49.058;12.190;2023-05-14T05:07:43;13.35;;;9.85;;
23676;SDS011;31493;49.058;12.190;2023-05-14T05:10:10;14.05;;;10.07;;
23676;SDS011;31493;49.058;12.190;2023-05-14T05:12:37;15.57;;;10.20;;
23676;SDS011;31493;49.058;12.190;2023-05-14T05:15:04;13.15;;;10.38;;
23676;SDS011;31493;49.058;12.190;2023-05-14T05:17:32;12.50;;;10.07;;
23676;SDS011;31493;49.058;12.190;2023-05-14T05:20:01;12.77;;;9.55;;
23676;SDS011;31493;49.058;12.190;2023-05-14T05:22:29;12.15;;;9.60;;
23676;SDS011;31493;49.058;12.190;2023-05-14T05:24:56;13.65;;;9.73;;
23676;SDS011;31493;49.058;12.190;2023-05-14T05:27:24;12.05;;;9.43;;
23676;SDS011;31493;49.058;12.190;2023-05-14T05:29:51;21.98;;;9.40;;
23676;SDS011;31493;49.058;12.190;2023-05-14T05:32:18;12.63;;;9.00;;
23676;SDS011;31493;49.058;12.190;2023-05-14T05:34:45;14.68;;;9.65;;
23676;SDS011;31493;49.058;12.190;2023-05-14T05:37:13;16.33;;;9.13;;
23676;SDS011;31493;49.058;12.190;2023-05-14T05:39:40;11.73;;;8.20;;
23676;SDS011;31493;49.058;12.190;2023-05-14T05:42:07;10.77;;;8.43;;
23676;SDS011;31493;49.058;12.190;2023-05-14T05:44:35;9.60;;;8.02;;
23676;SDS011;31493;49.058;12.190;2023-05-14T05:47:02;10.50;;;8.18;;
23676;SDS011;31493;49.058;12.190;2023-05-14T05:49:29;8.32;;;7.07;;
23676;SDS011;31493;49.058;12.190;2023-05-14T05:51:56;8.63;;;7.15;;
23676;SDS011;31493;49.058;12.190;2023-05-14T05:54:25;9.60;;;7.22;;
23676;SDS011;31493;49.058;12.190;2023-05-14T05:56:52;9.85;;;7.20;;
23676;SDS011;31493;49.058;12.190;2023-05-14T05:59:19;9.07;;;7.18;;
23676;SDS011;31493;49.058;12.190;2023-05-14T06:01:46;8.07;;;6.53;;
23676;SDS011;31493;49.058;12.190;2023-05-14T06:04:13;8.80;;;6.78;;
23676;SDS011;31493;49.058;12.190;2023-05-14T06:06:40;8.55;;;6.75;;
23676;SDS011;31493;49.058;12.190;2023-05-14T06:09:07;7.55;;;6.10;;
23676;SDS011;31493;49.058;12.190;2023-05-14T06:11:35;8.65;;;6.18;;
23676;SDS011;31493;49.058;12.190;2023-05-14T06:14:02;7.55;;;5.75;;
23676;SDS011;31493;49.058;12.190;2023-05-14T06:16:30;8.27;;;5.95;;
23676;SDS011;31493;49.058;12.190;2023-05-14T06:18:57;7.05;;;5.68;;
23676;SDS011;31493;49.058;12.190;2023-05-14T06:21:24;7.78;;;5.78;;
23676;SDS011;31493;49.058;12.190;2023-05-14T06:23:51;7.70;;;5.78;;
23676;SDS011;31493;49.058;12.190;2023-05-14T06:26:18;8.48;;;5.63;;
23676;SDS011;31493;49.058;12.190;2023-05-14T06:28:46;7.93;;;5.82;;
23676;SDS011;31493;49.058;12.190;2023-05-14T06:31:13;6.45;;;5.25;;
23676;SDS011;31493;49.058;12.190;2023-05-14T06:33:40;7.13;;;5.32;;
23676;SDS011;31493;49.058;12.190;2023-05-14T06:36:08;6.65;;;5.50;;
23676;SDS011;31493;49.058;12.190;2023-05-14T06:38:35;5.82;;;5.13;;
23676;SDS011;31493;49.058;12.190;2023-05-14T06:41:02;7.53;;;5.32;;
23676;SDS011;31493;49.058;12.190;2023-05-14T06:43:30;7.93;;;5.40;;
23676;SDS011;31493;49.058;12.190;2023-05-14T06:45:58;7.88;;;6.03;;
23676;SDS011;31493;49.058;12.190;2023-05-14T06:48:25;7.70;;;5.85;;
23676;SDS011;31493;49.058;12.190;2023-05-14T06:50:54;8.98;;;5.97;;
23676;SDS011;31493;49.058;12.190;2023-05-14T06:53:21;7.07;;;5.90;;
23676;SDS011;31493;49.058;12.190;2023-05-14T06:55:48;6.95;;;5.70;;
23676;SDS011;31493;49.058;12.190;2023-05-14T06:58:15;7.88;;;5.95;;
23676;SDS011;31493;49.058;12.190;2023-05-14T07:00:42;5.50;;;4.97;;
23676;SDS011;31493;49.058;12.190;2023-05-14T07:03:10;8.02;;;5.80;;
23676;SDS011;31493;49.058;12.190;2023-05-14T07:05:37;6.43;;;4.88;;
23676;SDS011;31493;49.058;12.190;2023-05-14T07:08:05;4.97;;;4.33;;
23676;SDS011;31493;49.058;12.190;2023-05-14T07:10:32;4.47;;;3.80;;
23676;SDS011;31493;49.058;12.190;2023-05-14T07:12:59;7.65;;;4.03;;
23676;SDS011;31493;49.058;12.190;2023-05-14T07:15:27;3.97;;;3.00;;
23676;SDS011;31493;49.058;12.190;2023-05-14T07:17:54;3.05;;;2.75;;
23676;SDS011;31493;49.058;12.190;2023-05-14T07:20:23;3.05;;;2.75;;
23676;SDS011;31493;49.058;12.190;2023-05-14T07:22:51;2.55;;;2.35;;
23676;SDS011;31493;49.058;12.190;2023-05-14T07:25:18;2.33;;;2.13;;
23676;SDS011;31493;49.058;12.190;2023-05-14T07:27:45;4.05;;;2.40;;
23676;SDS011;31493;49.058;12.190;2023-05-14T07:30:12;2.72;;;2.30;;
23676;SDS011;31493;49.058;12.190;2023-05-14T07:32:40;2.90;;;2.50;;
23676;SDS011;31493;49.058;12.190;2023-05-14T07:35:07;3.97;;;2.35;;
23676;SDS011;31493;49.058;12.190;2023-05-14T07:37:37;2.75;;;2.30;;
23676;SDS011;31493;49.058;12.190;2023-05-14T07:40:05;5.03;;;2.00;;
23676;SDS011;31493;49.058;12.190;2023-05-14T07:42:33;2.67;;;2.13;;
23676;SDS011;31493;49.058;12.190;2023-05-14T07:45:00;5.88;;;2.20;;
23676;SDS011;31493;49.058;12.190;2023-05-14T07:47:27;2.58;;;2.30;;
23676;SDS011;31493;49.058;12.190;2023-05-14T07:49:55;3.30;;;2.78;;
23676;SDS011;31493;49.058;12.190;2023-05-14T07:52:22;3.03;;;2.65;;
23676;SDS011;31493;49.058;12.190;2023-05-14T07:54:51;4.18;;;2.53;;
23676;SDS011;31493;49.058;12.190;2023-05-14T07:57:18;5.40;;;2.90;;
23676;SDS011;31493;49.058;12.190;2023-05-14T07:59:46;5.03;;;2.57;;
23676;SDS011;31493;49.058;12.190;2023-05-14T08:02:13;4.25;;;2.53;;
23676;SDS011;31493;49.058;12.190;2023-05-14T08:04:42;3.17;;;2.40;;
23676;SDS011;31493;49.058;12.190;2023-05-14T08:07:09;3.22;;;2.53;;
23676;SDS011;31493;49.058;12.190;2023-05-14T08:09:36;5.25;;;2.80;;
23676;SDS011;31493;49.058;12.190;2023-05-14T08:12:05;4.78;;;2.75;;
23676;SDS011;31493;49.058;12.190;2023-05-14T08:14:33;4.13;;;2.50;;
23676;SDS011;31493;49.058;12.190;2023-05-14T08:17:00;3.17;;;2.88;;
23676;SDS011;31493;49.058;12.190;2023-05-14T08:19:27;3.97;;;2.53;;
23676;SDS011;31493;49.058;12.190;2023-05-14T08:21:54;3.15;;;2.38;;
23676;SDS011;31493;49.058;12.190;2023-05-14T08:24:21;2.75;;;2.50;;
23676;SDS011;31493;49.058;12.190;2023-05-14T08:26:48;3.75;;;2.60;;
23676;SDS011;31493;49.058;12.190;2023-05-14T08:29:16;2.95;;;2.33;;
23676;SDS011;31493;49.058;12.190;2023-05-14T08:31:43;3.97;;;2.60;;
23676;SDS011;31493;49.058;12.190;2023-05-14T08:34:10;3.63;;;2.45;;
23676;SDS011;31493;49.058;12.190;2023-05-14T08:36:37;3.28;;;2.63;;
23676;SDS011;31493;49.058;12.190;2023-05-14T08:39:04;4.25;;;2.45;;
23676;SDS011;31493;49.058;12.190;2023-05-14T08:41:35;2.60;;;2.40;;
23676;SDS011;31493;49.058;12.190;2023-05-14T08:44:04;3.33;;;2.88;;
23676;SDS011;31493;49.058;12.190;2023-05-14T08:46:35;3.20;;;2.60;;
23676;SDS011;31493;49.058;12.190;2023-05-14T08:49:05;2.50;;;2.28;;
23676;SDS011;31493;49.058;12.190;2023-05-14T08:51:40;3.90;;;2.67;;
23676;SDS011;31493;49.058;12.190;2023-05-14T08:54:07;3.67;;;2.70;;
23676;SDS011;31493;49.058;12.190;2023-05-14T08:56:39;3.15;;;2.60;;
23676;SDS011;31493;49.058;12.190;2023-05-14T08:59:07;2.88;;;2.58;;
23676;SDS011;31493;49.058;12.190;2023-05-14T09:01:36;3.50;;;2.95;;
23676;SDS011;31493;49.058;12.190;2023-05-14T09:04:04;3.67;;;2.58;;
23676;SDS011;31493;49.058;12.190;2023-05-14T09:09:00;4.97;;;3.05;;
23676;SDS011;31493;49.058;12.190;2023-05-14T09:11:27;3.45;;;2.60;;
23676;SDS011;31493;49.058;12.190;2023-05-14T09:13:54;2.70;;;2.50;;
23676;SDS011;31493;49.058;12.190;2023-05-14T09:16:21;6.15;;;2.70;;
23676;SDS011;31493;49.058;12.190;2023-05-14T09:18:51;4.53;;;2.85;;
23676;SDS011;31493;49.058;12.190;2023-05-14T09:21:18;3.85;;;2.40;;
23676;SDS011;31493;49.058;12.190;2023-05-14T09:23:45;4.30;;;2.85;;
23676;SDS011;31493;49.058;12.190;2023-05-14T09:26:15;7.13;;;3.08;;
23676;SDS011;31493;49.058;12.190;2023-05-14T09:28:43;2.65;;;2.42;;
23676;SDS011;31493;49.058;12.190;2023-05-14T09:31:10;6.95;;;2.55;;
23676;SDS011;31493;49.058;12.190;2023-05-14T09:33:38;2.85;;;2.40;;
23676;SDS011;31493;49.058;12.190;2023-05-14T09:36:07;3.92;;;3.03;;
23676;SDS011;31493;49.058;12.190;2023-05-14T09:41:01;3.45;;;2.80;;
23676;SDS011;31493;49.058;12.190;2023-05-14T09:43:28;3.97;;;2.85;;
23676;SDS011;31493;49.058;12.190;2023-05-14T09:45:55;2.90;;;2.58;;
23676;SDS011;31493;49.058;12.190;2023-05-14T09:48:22;5.72;;;2.60;;
23676;SDS011;31493;49.058;12.190;2023-05-14T09:50:54;2.83;;;2.38;;
23676;SDS011;31493;49.058;12.190;2023-05-14T09:53:22;3.30;;;2.70;;
23676;SDS011;31493;49.058;12.190;2023-05-14T09:55:49;5.20;;;2.60;;
23676;SDS011;31493;49.058;12.190;2023-05-14T09:58:16;3.50;;;2.70;;
23676;SDS011;31493;49.058;12.190;2023-05-14T10:00:44;3.85;;;2.88;;
23676;SDS011;31493;49.058;12.190;2023-05-14T10:03:13;5.28;;;2.90;;
23676;SDS011;31493;49.058;12.190;2023-05-14T10:05:43;3.38;;;2.78;;
23676;SDS011;31493;49.058;12.190;2023-05-14T10:08:18;7.35;;;3.25;;
23676;SDS011;31493;49.058;12.190;2023-05-14T10:10:51;4.57;;;3.45;;
23676;SDS011;31493;49.058;12.190;2023-05-14T10:13:21;5.75;;;4.20;;
23676;SDS011;31493;49.058;12.190;2023-05-14T10:15:51;8.48;;;5.25;;
23676;SDS011;31493;49.058;12.190;2023-05-14T10:18:22;5.50;;;4.22;;
23676;SDS011;31493;49.058;12.190;2023-05-14T10:20:52;9.13;;;4.18;;
23676;SDS011;31493;49.058;12.190;2023-05-14T10:23:28;4.25;;;3.42;;
23676;SDS011;31493;49.058;12.190;2023-05-14T10:25:57;4.28;;;3.47;;
23676;SDS011;31493;49.058;12.190;2023-05-14T10:28:25;8.25;;;5.60;;
23676;SDS011;31493;49.058;12.190;2023-05-14T10:30:53;16.77;;;10.30;;
23676;SDS011;31493;49.058;12.190;2023-05-14T10:33:20;6.82;;;4.13;;
23676;SDS011;31493;49.058;12.190;2023-05-14T10:38:33;4.53;;;3.65;;
23676;SDS011;31493;49.058;12.190;2023-05-14T10:41:03;4.20;;;3.50;;
23676;SDS011;31493;49.058;12.190;2023-05-14T10:43:34;4.38;;;3.88;;
23676;SDS011;31493;49.058;12.190;2023-05-14T10:46:03;4.78;;;3.50;;
23676;SDS011;31493;49.058;12.190;2023-05-14T10:48:31;4.43;;;3.53;;
23676;SDS011;31493;49.058;12.190;2023-05-14T10:50:59;5.68;;;3.45;;
23676;SDS011;31493;49.058;12.190;2023-05-14T10:53:31;3.45;;;3.15;;
23676;SDS011;31493;49.058;12.190;2023-05-14T10:56:02;4.68;;;3.85;;
23676;SDS011;31493;49.058;12.190;2023-05-14T10:58:31;4.20;;;3.10;;
23676;SDS011;31493;49.058;12.190;2023-05-14T11:01:01;3.45;;;3.15;;
23676;SDS011;31493;49.058;12.190;2023-05-14T11:03:30;5.47;;;3.30;;
23676;SDS011;31493;49.058;12.190;2023-05-14T11:06:04;3.78;;;2.88;;
23676;SDS011;31493;49.058;12.190;2023-05-14T11:08:32;5.13;;;3.35;;
23676;SDS011;31493;49.058;12.190;2023-05-14T11:11:00;3.83;;;3.10;;
23676;SDS011;31493;49.058;12.190;2023-05-14T11:13:29;5.65;;;3.47;;
23676;SDS011;31493;49.058;12.190;2023-05-14T11:15:59;4.30;;;3.08;;
23676;SDS011;31493;49.058;12.190;2023-05-14T11:18:27;5.60;;;2.70;;
23676;SDS011;31493;49.058;12.190;2023-05-14T11:20:56;3.63;;;2.95;;
23676;SDS011;31493;49.058;12.190;2023-05-14T11:23:24;3.80;;;3.10;;
23676;SDS011;31493;49.058;12.190;2023-05-14T11:25:51;3.90;;;2.80;;
23676;SDS011;31493;49.058;12.190;2023-05-14T11:28:19;3.40;;;2.88;;
23676;SDS011;31493;49.058;12.190;2023-05-14T11:30:52;3.97;;;3.10;;
23676;SDS011;31493;49.058;12.190;2023-05-14T11:33:19;5.03;;;2.78;;
23676;SDS011;31493;49.058;12.190;2023-05-14T11:35:46;4.90;;;2.70;;
23676;SDS011;31493;49.058;12.190;2023-05-14T11:38:14;4.88;;;3.00;;
23676;SDS011;31493;49.058;12.190;2023-05-14T11:40:42;4.47;;;3.30;;
23676;SDS011;31493;49.058;12.190;2023-05-14T11:43:16;3.95;;;3.03;;
23676;SDS011;31493;49.058;12.190;2023-05-14T11:45:45;4.00;;;3.20;;
23676;SDS011;31493;49.058;12.190;2023-05-14T11:48:16;6.03;;;3.42;;
23676;SDS011;31493;49.058;12.190;2023-05-14T11:50:44;4.78;;;3.40;;
23676;SDS011;31493;49.058;12.190;2023-05-14T11:55:42;4.93;;;3.33;;
23676;SDS011;31493;49.058;12.190;2023-05-14T11:58:09;3.38;;;3.08;;
23676;SDS011;31493;49.058;12.190;2023-05-14T12:00:36;3.80;;;3.15;;
23676;SDS011;31493;49.058;12.190;2023-05-14T12:03:04;4.35;;;3.38;;
23676;SDS011;31493;49.058;12.190;2023-05-14T12:05:32;4.72;;;3.35;;
23676;SDS011;31493;49.058;12.190;2023-05-14T12:08:03;3.65;;;3.00;;
23676;SDS011;31493;49.058;12.190;2023-05-14T12:10:44;3.78;;;2.97;;
23676;SDS011;31493;49.058;12.190;2023-05-14T12:13:13;3.97;;;3.20;;
23676;SDS011;31493;49.058;12.190;2023-05-14T12:15:43;4.75;;;3.80;;
23676;SDS011;31493;49.058;12.190;2023-05-14T12:18:11;4.03;;;3.58;;
23676;SDS011;31493;49.058;12.190;2023-05-14T12:20:40;5.88;;;4.05;;
23676;SDS011;31493;49.058;12.190;2023-05-14T12:23:12;4.68;;;4.00;;
23676;SDS011;31493;49.058;12.190;2023-05-14T12:25:39;4.85;;;3.70;;
23676;SDS011;31493;49.058;12.190;2023-05-14T12:28:12;5.28;;;4.28;;
23676;SDS011;31493;49.058;12.190;2023-05-14T12:30:40;5.68;;;4.03;;
23676;SDS011;31493;49.058;12.190;2023-05-14T12:33:07;4.60;;;3.78;;
23676;SDS011;31493;49.058;12.190;2023-05-14T12:35:34;4.35;;;3.72;;
23676;SDS011;31493;49.058;12.190;2023-05-14T12:38:03;4.25;;;3.75;;
23676;SDS011;31493;49.058;12.190;2023-05-14T12:40:30;10.30;;;3.83;;
23676;SDS011;31493;49.058;12.190;2023-05-14T12:42:57;4.50;;;3.70;;
23676;SDS011;31493;49.058;12.190;2023-05-14T12:45:24;4.40;;;3.60;;
23676;SDS011;31493;49.058;12.190;2023-05-14T12:47:51;4.90;;;4.15;;
23676;SDS011;31493;49.058;12.190;2023-05-14T12:50:18;3.85;;;3.53;;
23676;SDS011;31493;49.058;12.190;2023-05-14T12:52:45;4.60;;;3.80;;
23676;SDS011;31493;49.058;12.190;2023-05-14T12:55:14;5.05;;;4.30;;
23676;SDS011;31493;49.058;12.190;2023-05-14T12:57:41;7.35;;;4.90;;
23676;SDS011;31493;49.058;12.190;2023-05-14T13:00:08;5.93;;;4.70;;
23676;SDS011;31493;49.058;12.190;2023-05-14T13:02:36;8.15;;;4.90;;
23676;SDS011;31493;49.058;12.190;2023-05-14T13:05:03;6.15;;;4.40;;
23676;SDS011;31493;49.058;12.190;2023-05-14T13:07:31;5.30;;;4.30;;
23676;SDS011;31493;49.058;12.190;2023-05-14T13:09:58;6.32;;;4.43;;
23676;SDS011;31493;49.058;12.190;2023-05-14T13:12:26;5.80;;;4.47;;
23676;SDS011;31493;49.058;12.190;2023-05-14T13:14:54;6.88;;;4.85;;
23676;SDS011;31493;49.058;12.190;2023-05-14T13:17:21;5.45;;;4.80;;
23676;SDS011;31493;49.058;12.190;2023-05-14T13:19:48;7.35;;;5.18;;
23676;SDS011;31493;49.058;12.190;2023-05-14T13:22:15;7.65;;;5.20;;
23676;SDS011;31493;49.058;12.190;2023-05-14T13:24:43;7.70;;;5.78;;
23676;SDS011;31493;49.058;12.190;2023-05-14T13:27:10;6.28;;;5.53;;
23676;SDS011;31493;49.058;12.190;2023-05-14T13:29:39;7.07;;;6.15;;
23676;SDS011;31493;49.058;12.190;2023-05-14T13:32:06;10.63;;;6.65;;
23676;SDS011;31493;49.058;12.190;2023-05-14T13:34:33;7.55;;;6.03;;
23676;SDS011;31493;49.058;12.190;2023-05-14T13:37:00;7.07;;;6.00;;
23676;SDS011;31493;49.058;12.190;2023-05-14T13:39:28;7.07;;;5.50;;
23676;SDS011;31493;49.058;12.190;2023-05-14T13:41:55;6.57;;;5.43;;
23676;SDS011;31493;49.058;12.190;2023-05-14T13:44:22;6.95;;;5.68;;
23676;SDS011;31493;49.058;12.190;2023-05-14T13:46:50;8.68;;;7.07;;
23676;SDS011;31493;49.058;12.190;2023-05-14T13:49:18;8.00;;;7.13;;
23676;SDS011;31493;49.058;12.190;2023-05-14T13:51:45;17.25;;;8.32;;
23676;SDS011;31493;49.058;12.190;2023-05-14T13:54:12;7.25;;;5.68;;
23676;SDS011;31493;49.058;12.190;2023-05-14T13:56:39;6.15;;;5.07;;
23676;SDS011;31493;49.058;12.190;2023-05-14T13:59:06;6.40;;;4.22;;
23676;SDS011;31493;49.058;12.190;2023-05-14T14:01:33;9.25;;;3.80;;
23676;SDS011;31493;49.058;12.190;2023-05-14T14:04:02;3.80;;;3.20;;
23676;SDS011;31493;49.058;12.190;2023-05-14T14:06:30;7.18;;;3.42;;
23676;SDS011;31493;49.058;12.190;2023-05-14T14:08:57;7.32;;;2.70;;
23676;SDS011;31493;49.058;12.190;2023-05-14T14:11:24;6.18;;;3.30;;
23676;SDS011;31493;49.058;12.190;2023-05-14T14:13:51;5.03;;;2.50;;
23676;SDS011;31493;49.058;12.190;2023-05-14T14:16:18;3.50;;;2.72;;
23676;SDS011;31493;49.058;12.190;2023-05-14T14:18:45;7.97;;;2.95;;
23676;SDS011;31493;49.058;12.190;2023-05-14T14:21:14;5.47;;;3.17;;
23676;SDS011;31493;49.058;12.190;2023-05-14T14:23:42;3.20;;;2.88;;
23676;SDS011;31493;49.058;12.190;2023-05-14T14:26:09;5.72;;;2.63;;
23676;SDS011;31493;49.058;12.190;2023-05-14T14:28:38;4.45;;;2.97;;
23676;SDS011;31493;49.058;12.190;2023-05-14T14:31:05;4.30;;;2.60;;
23676;SDS011;31493;49.058;12.190;2023-05-14T14:33:32;16.27;;;11.23;;
23676;SDS011;31493;49.058;12.190;2023-05-14T14:35:59;13.80;;;11.95;;
23676;SDS011;31493;49.058;12.190;2023-05-14T14:38:28;4.53;;;2.70;;